Time;durP1;ratioP1;P1;durP2;ratioP2;P2;SDS_P1;SDS_P2;PMS_P1;PMS_P2;Temp;Humidity;BMP_temperature;BMP_pressure;BME280_temperature;BME280_humidity;BME280_pressure;Samples;Min_cycle;Max_cycle;Signal;HPM_P1;HPM_P2
2023/07/15 00:00:04;;;;;;;11.8;7.7;;;;;;;16.03;81.82;;;;;
2023/07/15 00:11:01;;;;;;;11.8;7.7;;;;;;;16.01;84.14;;;;;
2023/07/15 00:22:02;;;;;;;10.1;7.6;;;;;;;15.93;83.39;;;;;
2023/07/15 00:33:02;;;;;;;10.1;7.6;;;;;;;15.84;83.94;;;;;
2023/07/15 00:43:02;;;;;;;10.1;7.6;;;;;;;15.73;84.07;;;;;
2023/07/15 00:54:02;;;;;;;10.8;7.7;;;;;;;15.6;84.39;;;;;
2023/07/15 01:04:01;;;;;;;10.8;7.7;;;;;;;15.6;84.58;;;;;
2023/07/15 01:15:02;;;;;;;10.8;7.7;;;;;;;15.45;85.36;;;;;
2023/07/15 01:26:01;;;;;;;9.7;6.6;;;;;;;15.54;85.12;;;;;
2023/07/15 01:37:01;;;;;;;9.7;6.6;;;;;;;15.46;85.21;;;;;
2023/07/15 01:47:01;;;;;;;9.7;6.6;;;;;;;15.49;84.82;;;;;
2023/07/15 01:57:01;;;;;;;9.2;5.9;;;;;;;15.54;84.52;;;;;
2023/07/15 02:08:01;;;;;;;9.2;5.9;;;;;;;15.52;84.59;;;;;
2023/07/15 02:18:01;;;;;;;10.1;6.6;;;;;;;15.64;84.53;;;;;
2023/07/15 02:29:01;;;;;;;10.1;6.6;;;;;;;15.73;85.26;;;;;
2023/07/15 02:39:01;;;;;;;10.1;6.6;;;;;;;15.81;85.67;;;;;
2023/07/15 02:50:03;;;;;;;10.4;7.2;;;;;;;15.93;85.12;;;;;
2023/07/15 03:00:03;;;;;;;10.4;7.2;;;;;;;15.82;85.89;;;;;
2023/07/15 03:10:01;;;;;;;10.4;7.2;;;;;;;15.84;85.78;;;;;
2023/07/15 03:21:01;;;;;;;10.5;7.4;;;;;;;15.86;85.14;;;;;
2023/07/15 03:32:01;;;;;;;10.5;7.4;;;;;;;15.9;85.06;;;;;
2023/07/15 03:42:02;;;;;;;10.5;7.4;;;;;;;16.03;84.76;;;;;
2023/07/15 03:53:01;;;;;;;9.3;6.7;;;;;;;16.21;85.09;;;;;
2023/07/15 04:03:01;;;;;;;9.3;6.7;;;;;;;16.5;85.18;;;;;
2023/07/15 04:13:01;;;;;;;9.3;6.7;;;;;;;16.95;84.12;;;;;
2023/07/15 04:24:01;;;;;;;11.4;8.7;;;;;;;17.39;82.83;;;;;
2023/07/15 04:35:01;;;;;;;11.4;8.7;;;;;;;17.85;81.61;;;;;
2023/07/15 04:45:01;;;;;;;11.4;8.7;;;;;;;18.24;80.65;;;;;
2023/07/15 04:56:02;;;;;;;11.1;8.8;;;;;;;18.81;79.8;;;;;
2023/07/15 05:07:01;;;;;;;11.1;8.8;;;;;;;19.24;78.96;;;;;
2023/07/15 05:18:01;;;;;;;10.3;7.5;;;;;;;19.84;77.69;;;;;
2023/07/15 05:29:02;;;;;;;10.3;7.5;;;;;;;20.34;76.2;;;;;
2023/07/15 05:40:01;;;;;;;10.3;7.5;;;;;;;20.72;75.16;;;;;
2023/07/15 05:50:01;;;;;;;10;7.8;;;;;;;21.24;74.55;;;;;
2023/07/15 06:00:01;;;;;;;10;7.8;;;;;;;21.69;72.65;;;;;
2023/07/15 06:11:01;;;;;;;10;7.8;;;;;;;22.23;71.71;;;;;
2023/07/15 06:22:01;;;;;;;9.3;6.1;;;;;;;22.81;71.1;;;;;
2023/07/15 06:32:01;;;;;;;9.3;6.1;;;;;;;23.36;68.91;;;;;
2023/07/15 06:42:01;;;;;;;9.3;6.1;;;;;;;23.91;69;;;;;
2023/07/15 06:52:01;;;;;;;6.5;4.6;;;;;;;24.38;64.41;;;;;
2023/07/15 07:03:01;;;;;;;6.5;4.6;;;;;;;24.7;59.36;;;;;
2023/07/15 07:13:01;;;;;;;6.5;4.6;;;;;;;24.97;58.31;;;;;
2023/07/15 07:23:01;;;;;;;4.6;3.1;;;;;;;25.38;58.65;;;;;
2023/07/15 07:34:01;;;;;;;4.6;3.1;;;;;;;25.59;56.03;;;;;
2023/07/15 07:45:01;;;;;;;4.6;3.1;;;;;;;25.93;56.98;;;;;
2023/07/15 07:56:01;;;;;;;5.4;2.9;;;;;;;26.33;57.49;;;;;
2023/07/15 08:06:01;;;;;;;5.4;2.9;;;;;;;26.53;52.86;;;;;
2023/07/15 08:17:01;;;;;;;5.4;2.9;;;;;;;26.8;56.16;;;;;
2023/07/15 08:28:01;;;;;;;5.8;2.5;;;;;;;26.78;53.22;;;;;
2023/07/15 08:39:02;;;;;;;5.8;2.5;;;;;;;27.18;54.52;;;;;
2023/07/15 08:49:02;;;;;;;5.7;2.8;;;;;;;27.12;52.47;;;;;
2023/07/15 09:00:04;;;;;;;5.7;2.8;;;;;;;27.49;51.67;;;;;
2023/07/15 09:11:02;;;;;;;5.7;2.8;;;;;;;27.96;51.16;;;;;
2023/07/15 09:21:01;;;;;;;4.6;2.5;;;;;;;28.08;50.34;;;;;
2023/07/15 09:32:01;;;;;;;4.6;2.5;;;;;;;28.29;49.37;;;;;
2023/07/15 09:43:01;;;;;;;4.6;2.5;;;;;;;28.87;47.48;;;;;
2023/07/15 09:53:01;;;;;;;5;2.3;;;;;;;28.96;46.76;;;;;
2023/07/15 10:03:01;;;;;;;5;2.3;;;;;;;29.22;44.78;;;;;
2023/07/15 10:14:02;;;;;;;5;2.3;;;;;;;29.16;42.68;;;;;
2023/07/15 10:25:01;;;;;;;4.7;2.5;;;;;;;29.52;44.57;;;;;
2023/07/15 10:35:01;;;;;;;4.7;2.5;;;;;;;29.6;45.27;;;;;
2023/07/15 10:45:01;;;;;;;4.7;2.5;;;;;;;29.73;46.28;;;;;
2023/07/15 10:56:01;;;;;;;3.7;2.1;;;;;;;29.93;46.36;;;;;
2023/07/15 11:07:01;;;;;;;3.7;2.1;;;;;;;30;43.66;;;;;
2023/07/15 11:17:03;;;;;;;3.7;2.1;;;;;;;30.31;45.44;;;;;
2023/07/15 11:27:01;;;;;;;4.7;2.3;;;;;;;30.42;41.42;;;;;
2023/07/15 11:38:01;;;;;;;4.7;2.3;;;;;;;30.52;42.08;;;;;
2023/07/15 11:48:01;;;;;;;4.5;2.4;;;;;;;30.77;41.72;;;;;
2023/07/15 11:58:01;;;;;;;4.5;2.4;;;;;;;30.69;40.93;;;;;
2023/07/15 12:08:01;;;;;;;4.5;2.4;;;;;;;30.9;39.04;;;;;
2023/07/15 12:19:01;;;;;;;4.3;2;;;;;;;31.02;39.85;;;;;
2023/07/15 12:30:01;;;;;;;4.3;2;;;;;;;31.18;43.03;;;;;
2023/07/15 12:41:01;;;;;;;4.3;2;;;;;;;31.42;43.94;;;;;
2023/07/15 12:52:01;;;;;;;5.2;2.4;;;;;;;31.47;39.16;;;;;
2023/07/15 13:02:01;;;;;;;5.2;2.4;;;;;;;31.81;37.88;;;;;
2023/07/15 13:12:01;;;;;;;5.2;2.4;;;;;;;31.91;38.46;;;;;
2023/07/15 13:23:01;;;;;;;6.3;2.3;;;;;;;32.09;39.12;;;;;
2023/07/15 13:33:01;;;;;;;6.3;2.3;;;;;;;32.12;33.56;;;;;
2023/07/15 13:44:01;;;;;;;6.3;2.3;;;;;;;32.51;34.14;;;;;
2023/07/15 13:55:01;;;;;;;4.3;1.8;;;;;;;32.54;35.91;;;;;
2023/07/15 14:06:01;;;;;;;4.3;1.8;;;;;;;32.89;33.44;;;;;
2023/07/15 14:17:02;;;;;;;4.3;1.8;;;;;;;33.02;34.03;;;;;
2023/07/15 14:28:01;;;;;;;6.1;2.3;;;;;;;33.35;35.14;;;;;
2023/07/15 14:38:01;;;;;;;6.1;2.3;;;;;;;33.57;35.34;;;;;
2023/07/15 14:49:01;;;;;;;4;1.9;;;;;;;33.68;33.65;;;;;
2023/07/15 15:00:02;;;;;;;4;1.9;;;;;;;34;34.67;;;;;
2023/07/15 15:11:01;;;;;;;4;1.9;;;;;;;36.01;29.54;;;;;
2023/07/15 15:22:01;;;;;;;4;2.1;;;;;;;38.54;30.3;;;;;
2023/07/15 15:32:01;;;;;;;4;2.1;;;;;;;40.7;24.95;;;;;
2023/07/15 15:42:01;;;;;;;4;2.1;;;;;;;40.22;26.25;;;;;
2023/07/15 15:52:01;;;;;;;3.7;1.8;;;;;;;41.55;26.29;;;;;
2023/07/15 16:03:02;;;;;;;3.7;1.8;;;;;;;42.5;23.51;;;;;
2023/07/15 16:14:02;;;;;;;3.7;1.8;;;;;;;43.49;21.73;;;;;
2023/07/15 16:24:02;;;;;;;3.7;2;;;;;;;43.92;21.59;;;;;
2023/07/15 16:34:01;;;;;;;3.7;2;;;;;;;43.09;22.89;;;;;
2023/07/15 16:44:01;;;;;;;3.7;2;;;;;;;42.36;24.69;;;;;
2023/07/15 16:55:01;;;;;;;7.6;4.6;;;;;;;43.12;25.07;;;;;
2023/07/15 17:05:01;;;;;;;7.6;4.6;;;;;;;43.83;23.51;;;;;
2023/07/15 17:15:04;;;;;;;7.6;4.6;;;;;;;42.1;26.79;;;;;
2023/07/15 17:26:01;;;;;;;4.3;1.9;;;;;;;38.07;29.02;;;;;
2023/07/15 17:36:01;;;;;;;4.3;1.9;;;;;;;35.59;34.63;;;;;
2023/07/15 17:46:02;;;;;;;4.3;1.9;;;;;;;35.97;35.46;;;;;
2023/07/15 17:57:01;;;;;;;5.2;2.7;;;;;;;37.74;34.27;;;;;
2023/07/15 18:08:02;;;;;;;5.2;2.7;;;;;;;35.73;36.41;;;;;
2023/07/15 18:19:01;;;;;;;5.2;2.7;;;;;;;32.83;40.19;;;;;
2023/07/15 18:29:01;;;;;;;6.4;3;;;;;;;30.71;43.78;;;;;
2023/07/15 18:39:01;;;;;;;6.4;3;;;;;;;29.23;46.69;;;;;
2023/07/15 18:49:01;;;;;;;6.4;3;;;;;;;28.15;47.65;;;;;
2023/07/15 19:00:02;;;;;;;6.3;3.5;;;;;;;27.14;49.19;;;;;
2023/07/15 19:11:02;;;;;;;6.3;3.5;;;;;;;26.27;50.98;;;;;
2023/07/15 19:22:02;;;;;;;6.2;3.9;;;;;;;25.57;52.14;;;;;
2023/07/15 19:33:01;;;;;;;6.2;3.9;;;;;;;24.87;54.77;;;;;
2023/07/15 19:43:02;;;;;;;6.2;3.9;;;;;;;24.5;54.69;;;;;
2023/07/15 19:53:02;;;;;;;6.7;4.1;;;;;;;23.99;54.53;;;;;
2023/07/15 20:04:02;;;;;;;6.7;4.1;;;;;;;23.46;59.24;;;;;
2023/07/15 20:14:02;;;;;;;6.7;4.1;;;;;;;23;59.78;;;;;
2023/07/15 20:24:02;;;;;;;9.5;6.1;;;;;;;22.6;64.28;;;;;
2023/07/15 20:35:02;;;;;;;9.5;6.1;;;;;;;22.24;68.25;;;;;
2023/07/15 20:45:02;;;;;;;9.5;6.1;;;;;;;21.88;67.09;;;;;
2023/07/15 20:56:02;;;;;;;10.9;8.1;;;;;;;21.62;70.7;;;;;
2023/07/15 21:07:02;;;;;;;10.9;8.1;;;;;;;21.5;71.69;;;;;
2023/07/15 21:18:02;;;;;;;10.9;8.1;;;;;;;21.42;72.35;;;;;
2023/07/15 21:28:02;;;;;;;10.1;7.4;;;;;;;21.46;70.9;;;;;
2023/07/15 21:39:02;;;;;;;10.1;7.4;;;;;;;21.22;71.64;;;;;
2023/07/15 21:49:02;;;;;;;10.1;7.4;;;;;;;21.08;72.48;;;;;
2023/07/15 21:59:02;;;;;;;13;7.6;;;;;;;20.91;73.5;;;;;
2023/07/15 22:09:02;;;;;;;13;7.6;;;;;;;20.66;72.56;;;;;
2023/07/15 22:20:02;;;;;;;10.5;6.9;;;;;;;20.43;71.89;;;;;
2023/07/15 22:31:02;;;;;;;10.5;6.9;;;;;;;20.2;73.27;;;;;
2023/07/15 22:42:02;;;;;;;10.5;6.9;;;;;;;19.88;75.1;;;;;
2023/07/15 22:52:02;;;;;;;8.9;6.4;;;;;;;19.65;74.61;;;;;
2023/07/15 23:03:02;;;;;;;8.9;6.4;;;;;;;19.47;75.86;;;;;
2023/07/15 23:13:02;;;;;;;8.9;6.4;;;;;;;19.33;78.37;;;;;
2023/07/15 23:24:02;;;;;;;8.2;5.8;;;;;;;19.24;77.29;;;;;
2023/07/15 23:34:02;;;;;;;8.2;5.8;;;;;;;19.11;77.29;;;;;
2023/07/15 23:45:02;;;;;;;8.2;5.8;;;;;;;18.98;77.91;;;;;
2023/07/15 23:56:02;;;;;;;9.6;5.3;;;;;;;18.85;78.55;;;;;
